Time;durP1;ratioP1;P1;durP2;ratioP2;P2;SDS_P1;SDS_P2;PMS_P1;PMS_P2;Temp;Humidity;BMP_temperature;BMP_pressure;BME280_temperature;BME280_humidity;BME280_pressure;Samples;Min_cycle;Max_cycle;Signal;HPM_P1;HPM_P2
2021/03/16 00:00:44;;;;;;;4.93;0.90;;;4.10;83.90;;;;;;5034919;28;20073;-60
2021/03/16 00:03:33;;;;;;;1.37;0.53;;;4.10;83.60;;;;;;5039599;28;20372;-60
2021/03/16 00:06:23;;;;;;;3.97;1.10;;;4.10;83.60;;;;;;5035563;28;20104;-60
2021/03/16 00:08:55;;;;;;;8.98;1.20;;;4.10;83.40;;;;;;5061997;28;20103;-59
2021/03/16 00:11:25;;;;;;;12.52;1.50;;;4.10;83.50;;;;;;5061601;28;20381;-60
2021/03/16 00:13:52;;;;;;;4.53;1.83;;;4.10;83.20;;;;;;5062268;28;20107;-60
2021/03/16 00:16:20;;;;;;;1.70;0.70;;;4.00;83.60;;;;;;5061916;28;20518;-59
2021/03/16 00:18:48;;;;;;;2.58;1.30;;;4.10;83.30;;;;;;5053139;28;20061;-60
2021/03/16 00:21:18;;;;;;;1.60;0.85;;;4.10;83.20;;;;;;5050246;28;20530;-60
2021/03/16 00:23:47;;;;;;;2.08;0.85;;;4.10;83.20;;;;;;5061936;28;20049;-59
2021/03/16 00:26:14;;;;;;;6.22;0.70;;;4.10;83.30;;;;;;5061439;28;20056;-60
2021/03/16 00:28:41;;;;;;;5.65;1.10;;;4.10;82.70;;;;;;5061472;28;20344;-60
2021/03/16 00:31:08;;;;;;;3.50;0.77;;;4.10;82.90;;;;;;5061472;28;20055;-59
2021/03/16 00:33:39;;;;;;;2.13;0.75;;;4.00;83.10;;;;;;5061342;28;20057;-60
2021/03/16 00:36:09;;;;;;;6.93;1.92;;;4.00;83.30;;;;;;5060462;28;20055;-60
2021/03/16 00:38:38;;;;;;;1.90;0.77;;;4.10;83.40;;;;;;5062124;28;20048;-60
2021/03/16 00:41:05;;;;;;;2.80;0.93;;;4.10;83.50;;;;;;5061585;28;20398;-60
2021/03/16 00:43:37;;;;;;;5.40;0.80;;;4.10;83.40;;;;;;5059977;28;20055;-61
2021/03/16 00:46:11;;;;;;;10.88;1.52;;;4.20;83.30;;;;;;5059965;28;20053;-60
2021/03/16 00:48:48;;;;;;;1.48;0.93;;;4.20;83.20;;;;;;5077363;28;20052;-60
2021/03/16 00:51:16;;;;;;;3.30;1.00;;;4.30;82.80;;;;;;5057723;28;20940;-60
2021/03/16 00:53:43;;;;;;;3.97;1.48;;;4.20;82.90;;;;;;5061045;28;20060;-60
2021/03/16 00:56:14;;;;;;;1.42;0.60;;;4.20;82.60;;;;;;5060674;28;20328;-61
2021/03/16 00:58:41;;;;;;;3.40;0.90;;;4.20;82.80;;;;;;5062039;28;20049;-60
2021/03/16 01:01:08;;;;;;;2.83;1.52;;;4.20;82.90;;;;;;5054251;28;20107;-60
2021/03/16 01:03:36;;;;;;;2.15;0.82;;;4.20;82.90;;;;;;5060753;28;20344;-60
2021/03/16 01:06:05;;;;;;;12.80;0.90;;;4.20;83.00;;;;;;5060750;28;20056;-60
2021/03/16 01:08:35;;;;;;;4.53;1.30;;;4.10;83.10;;;;;;5058303;28;20049;-60
2021/03/16 01:11:08;;;;;;;3.92;1.02;;;4.10;83.00;;;;;;5059257;28;20052;-61
2021/03/16 01:13:38;;;;;;;2.25;0.93;;;4.10;83.10;;;;;;5059293;28;20289;-60
2021/03/16 01:16:06;;;;;;;1.05;0.63;;;4.00;83.20;;;;;;5058090;28;20083;-60
2021/03/16 01:18:34;;;;;;;1.77;0.52;;;3.90;83.40;;;;;;5050549;28;20060;-61
2021/03/16 01:21:08;;;;;;;5.13;0.90;;;3.90;83.50;;;;;;5059380;28;20076;-60
2021/03/16 01:23:35;;;;;;;2.33;1.75;;;3.90;83.50;;;;;;5058176;28;20053;-61
2021/03/16 01:26:03;;;;;;;4.57;1.02;;;4.10;83.40;;;;;;5058651;28;20074;-60
2021/03/16 01:28:30;;;;;;;3.35;1.25;;;4.20;83.10;;;;;;5060356;28;20049;-60
2021/03/16 01:30:58;;;;;;;4.57;1.33;;;4.30;82.90;;;;;;5060107;28;20371;-60
2021/03/16 01:33:25;;;;;;;1.35;0.60;;;4.30;82.80;;;;;;5059685;28;20128;-59
2021/03/16 01:35:52;;;;;;;4.93;0.70;;;4.30;82.90;;;;;;5059258;28;20057;-60
2021/03/16 01:38:20;;;;;;;2.50;0.68;;;4.20;83.10;;;;;;5059375;28;20051;-60
2021/03/16 01:40:47;;;;;;;5.38;0.85;;;4.20;82.50;;;;;;5064174;28;20283;-60
2021/03/16 01:43:17;;;;;;;3.85;0.93;;;4.10;83.30;;;;;;5061993;28;20098;-60
2021/03/16 01:45:46;;;;;;;6.35;0.88;;;4.00;83.80;;;;;;5062878;28;20056;-60
2021/03/16 01:48:14;;;;;;;2.20;0.70;;;3.90;84.30;;;;;;5062282;28;20382;-61
2021/03/16 01:50:42;;;;;;;3.35;1.90;;;4.00;84.20;;;;;;5062412;28;20049;-60
2021/03/16 01:53:10;;;;;;;5.82;1.02;;;3.90;84.50;;;;;;5073687;28;20049;-60
2021/03/16 01:55:38;;;;;;;5.78;0.90;;;3.90;84.40;;;;;;5056066;28;20118;-60
2021/03/16 01:58:05;;;;;;;5.75;0.60;;;3.90;84.00;;;;;;5064595;28;20152;-60
2021/03/16 02:00:50;;;;;;;3.40;0.65;;;3.90;83.90;;;;;;5060223;28;20053;-60
2021/03/16 02:03:36;;;;;;;4.90;0.80;;;3.90;84.10;;;;;;5062398;28;21262;-60
2021/03/16 02:06:32;;;;;;;4.47;1.48;;;3.90;84.20;;;;;;5062411;28;20486;-59
2021/03/16 02:09:27;;;;;;;5.00;1.10;;;4.00;83.70;;;;;;5064101;28;20415;-60
2021/03/16 02:12:20;;;;;;;3.08;0.80;;;4.00;83.80;;;;;;5063830;28;20037;-60
2021/03/16 02:15:10;;;;;;;6.18;1.05;;;4.00;83.70;;;;;;5065301;28;20402;-60
2021/03/16 02:17:58;;;;;;;2.72;0.70;;;4.10;84.00;;;;;;5065134;28;20049;-60
2021/03/16 02:21:08;;;;;;;6.70;1.83;;;4.10;84.20;;;;;;5063430;28;20052;-59
2021/03/16 02:24:13;;;;;;;3.28;1.13;;;3.90;84.40;;;;;;5064202;28;20356;-59
2021/03/16 02:27:08;;;;;;;6.60;0.85;;;3.90;85.10;;;;;;5063327;28;20067;-60
2021/03/16 02:29:59;;;;;;;4.47;1.80;;;3.90;85.10;;;;;;5064634;28;20090;-59
2021/03/16 02:32:48;;;;;;;2.95;1.20;;;3.90;85.30;;;;;;5065151;28;20044;-60
2021/03/16 02:35:35;;;;;;;3.67;0.93;;;3.90;85.30;;;;;;5044285;28;20513;-60
2021/03/16 02:38:26;;;;;;;1.67;0.50;;;3.90;85.00;;;;;;5054816;28;20259;-59
2021/03/16 02:41:16;;;;;;;6.43;1.45;;;3.90;84.70;;;;;;5064367;28;20049;-60
2021/03/16 02:44:01;;;;;;;2.35;0.90;;;4.00;84.80;;;;;;5062516;28;20092;-61
2021/03/16 02:46:50;;;;;;;2.78;0.85;;;3.90;84.80;;;;;;5063450;28;20075;-60
2021/03/16 02:49:39;;;;;;;3.08;0.82;;;4.00;84.50;;;;;;5062676;28;21013;-60
2021/03/16 02:52:26;;;;;;;3.92;1.08;;;3.90;84.90;;;;;;5063193;28;20654;-60
2021/03/16 02:55:12;;;;;;;3.75;0.70;;;4.00;85.30;;;;;;5061633;28;20053;-60
2021/03/16 02:58:01;;;;;;;7.35;1.10;;;3.90;85.60;;;;;;5061739;28;20307;-60
2021/03/16 03:00:52;;;;;;;1.95;0.80;;;4.00;86.00;;;;;;5058403;28;20044;-60
2021/03/16 03:03:39;;;;;;;3.08;1.38;;;3.90;85.80;;;;;;5061021;28;20049;-60
2021/03/16 03:06:26;;;;;;;3.80;0.93;;;4.00;84.90;;;;;;5051890;28;20285;-59
2021/03/16 03:09:13;;;;;;;2.50;0.88;;;4.00;84.80;;;;;;5070537;28;20210;-60
2021/03/16 03:12:00;;;;;;;3.80;0.88;;;4.10;84.70;;;;;;5060726;28;20048;-59
2021/03/16 03:14:49;;;;;;;3.05;0.68;;;4.20;83.80;;;;;;5061247;28;20080;-59
2021/03/16 03:17:35;;;;;;;4.25;1.15;;;4.20;83.30;;;;;;5061173;28;20315;-60
2021/03/16 03:20:22;;;;;;;11.63;2.10;;;4.30;83.20;;;;;;5061261;28;20755;-60
2021/03/16 03:23:12;;;;;;;1.88;0.70;;;4.30;82.70;;;;;;5060790;28;20054;-60
2021/03/16 03:26:02;;;;;;;2.97;0.95;;;4.30;82.20;;;;;;5060078;28;20056;-60
2021/03/16 03:28:48;;;;;;;7.63;1.00;;;4.40;81.90;;;;;;5061725;28;20252;-60
2021/03/16 03:31:37;;;;;;;2.78;1.13;;;4.40;82.10;;;;;;5054418;28;20332;-60
2021/03/16 03:34:23;;;;;;;2.95;0.63;;;4.40;81.90;;;;;;5060176;28;20972;-60
2021/03/16 03:37:10;;;;;;;0.93;0.45;;;4.40;82.20;;;;;;5061830;28;20060;-60
2021/03/16 03:39:57;;;;;;;7.68;1.00;;;4.50;82.50;;;;;;5060612;28;20056;-60
2021/03/16 03:42:44;;;;;;;2.25;0.75;;;4.50;81.90;;;;;;5062191;28;20045;-60
2021/03/16 03:45:31;;;;;;;3.22;1.25;;;4.40;82.00;;;;;;5061972;28;20465;-60
2021/03/16 03:48:17;;;;;;;2.85;1.20;;;4.30;82.60;;;;;;5061799;28;20666;-59
2021/03/16 03:51:03;;;;;;;4.88;1.58;;;4.10;82.80;;;;;;5061116;28;20090;-59
2021/03/16 03:53:51;;;;;;;1.85;0.90;;;4.00;83.40;;;;;;5061929;28;20248;-60
2021/03/16 03:56:38;;;;;;;2.08;0.82;;;3.80;83.90;;;;;;5062761;28;20309;-60
2021/03/16 03:59:25;;;;;;;3.72;0.95;;;3.80;84.20;;;;;;5061963;28;20565;-61
2021/03/16 04:02:16;;;;;;;1.75;1.15;;;3.70;84.30;;;;;;5057328;28;20055;-60
2021/03/16 04:05:11;;;;;;;5.55;1.13;;;3.70;84.40;;;;;;5062550;28;20072;-61
2021/03/16 04:07:58;;;;;;;2.63;1.17;;;3.60;84.60;;;;;;5062405;28;20392;-60
2021/03/16 04:10:44;;;;;;;3.42;1.23;;;3.60;84.70;;;;;;5061809;28;20057;-60
2021/03/16 04:13:30;;;;;;;7.13;2.20;;;3.70;84.40;;;;;;5046602;28;20508;-60
2021/03/16 04:16:17;;;;;;;3.15;1.52;;;3.70;84.40;;;;;;5040814;28;21171;-61
2021/03/16 04:19:06;;;;;;;3.50;1.77;;;3.70;84.30;;;;;;5042204;28;20065;-60
2021/03/16 04:21:52;;;;;;;2.17;0.82;;;3.70;84.70;;;;;;5048355;28;20061;-60
2021/03/16 04:24:39;;;;;;;2.95;1.10;;;3.80;84.30;;;;;;5040407;28;20367;-60
2021/03/16 04:27:27;;;;;;;2.95;0.70;;;3.70;84.40;;;;;;5037516;28;20881;-60
2021/03/16 04:30:13;;;;;;;3.00;0.95;;;3.80;84.30;;;;;;5040769;28;20241;-60
2021/03/16 04:32:59;;;;;;;2.88;1.17;;;3.80;84.00;;;;;;5040495;28;20060;-60
2021/03/16 04:35:48;;;;;;;6.55;1.35;;;3.80;84.30;;;;;;5052431;28;20352;-60
2021/03/16 04:38:35;;;;;;;4.82;0.90;;;3.90;84.10;;;;;;5051706;28;20066;-60
2021/03/16 04:41:22;;;;;;;1.98;0.57;;;3.90;84.20;;;;;;5040176;28;20228;-59
2021/03/16 04:44:08;;;;;;;14.07;1.65;;;4.00;84.30;;;;;;5039273;28;20356;-60
2021/03/16 04:46:54;;;;;;;3.83;0.73;;;3.90;84.40;;;;;;5040384;28;20205;-60
2021/03/16 04:49:39;;;;;;;2.92;0.85;;;3.90;84.10;;;;;;5040654;28;20236;-60
2021/03/16 04:52:24;;;;;;;1.65;0.80;;;3.90;84.00;;;;;;5038189;28;20173;-60
2021/03/16 04:55:10;;;;;;;2.72;0.77;;;3.90;84.40;;;;;;5058161;28;20363;-61
2021/03/16 04:57:56;;;;;;;4.68;1.10;;;3.90;84.00;;;;;;5055139;28;20048;-60
2021/03/16 05:00:42;;;;;;;3.33;0.80;;;4.00;83.90;;;;;;5056382;28;20078;-60
2021/03/16 05:03:34;;;;;;;1.50;0.50;;;4.00;83.60;;;;;;5030183;28;20078;-60
2021/03/16 05:06:19;;;;;;;1.95;0.95;;;4.00;83.90;;;;;;5054382;28;20361;-61
2021/03/16 05:09:05;;;;;;;11.48;0.85;;;4.00;83.90;;;;;;5056325;28;20343;-60
2021/03/16 05:11:50;;;;;;;1.02;0.63;;;4.00;84.00;;;;;;5055709;28;20045;-61
2021/03/16 05:14:35;;;;;;;1.60;1.10;;;4.00;84.00;;;;;;5061973;28;20351;-60
2021/03/16 05:17:22;;;;;;;1.73;0.45;;;4.00;84.00;;;;;;5060183;28;21004;-60
2021/03/16 05:20:10;;;;;;;5.63;0.98;;;4.00;83.80;;;;;;5062710;28;20423;-60
2021/03/16 05:22:55;;;;;;;3.22;0.65;;;4.00;83.70;;;;;;5063527;28;20044;-60
2021/03/16 05:25:41;;;;;;;1.55;0.80;;;4.00;83.80;;;;;;5065290;28;20044;-60
2021/03/16 05:28:26;;;;;;;5.70;1.27;;;4.00;83.40;;;;;;5063860;28;20417;-59
2021/03/16 05:31:11;;;;;;;4.22;1.10;;;4.10;83.60;;;;;;5065290;28;20040;-60
2021/03/16 05:33:58;;;;;;;3.90;1.20;;;4.10;83.30;;;;;;5065048;28;20292;-61
2021/03/16 05:36:46;;;;;;;2.90;0.93;;;4.00;83.50;;;;;;5066376;28;20252;-59
2021/03/16 05:39:31;;;;;;;3.28;1.30;;;4.10;83.70;;;;;;5065550;28;20479;-61
2021/03/16 05:42:19;;;;;;;2.55;1.33;;;4.10;83.50;;;;;;5064344;28;20657;-60
2021/03/16 05:45:06;;;;;;;4.80;0.90;;;4.00;83.60;;;;;;5062684;28;20072;-60
2021/03/16 05:47:53;;;;;;;11.80;1.45;;;4.00;83.80;;;;;;5041729;28;20046;-60
2021/03/16 05:50:40;;;;;;;1.50;0.88;;;4.00;83.10;;;;;;5038910;28;20041;-60
2021/03/16 05:53:27;;;;;;;4.43;2.00;;;4.10;83.10;;;;;;5041825;28;20414;-60
2021/03/16 05:56:15;;;;;;;3.05;0.88;;;4.00;83.40;;;;;;5042041;28;20053;-59
2021/03/16 05:59:03;;;;;;;5.95;1.30;;;4.00;83.50;;;;;;5040764;28;20084;-60
2021/03/16 06:01:49;;;;;;;6.82;1.02;;;4.00;83.40;;;;;;5042076;28;20119;-60
2021/03/16 06:04:34;;;;;;;1.50;0.85;;;4.00;83.80;;;;;;5052125;28;20189;-61
2021/03/16 06:07:21;;;;;;;6.15;0.88;;;4.00;83.60;;;;;;5064549;28;20468;-61
2021/03/16 06:10:09;;;;;;;3.05;1.30;;;4.10;83.90;;;;;;5063958;28;20052;-61
2021/03/16 06:12:54;;;;;;;7.90;1.13;;;4.10;83.90;;;;;;5061678;28;20085;-60
2021/03/16 06:15:42;;;;;;;3.88;0.77;;;4.20;83.50;;;;;;5064949;28;20080;-60
2021/03/16 06:18:28;;;;;;;2.28;1.05;;;4.20;83.30;;;;;;5061982;28;20506;-60
2021/03/16 06:21:19;;;;;;;1.38;0.70;;;4.20;83.10;;;;;;5060604;28;20259;-60
2021/03/16 06:24:13;;;;;;;;;;;4.30;82.80;;;;;;5064306;28;20052;-60
2021/03/16 06:27:05;;;;;;;3.20;1.02;;;4.20;83.00;;;;;;5061877;28;20219;-59
2021/03/16 06:29:52;;;;;;;4.35;0.80;;;4.30;81.80;;;;;;5060918;28;20295;-60
2021/03/16 06:32:37;;;;;;;2.85;0.93;;;4.40;82.60;;;;;;5054219;28;20049;-61
2021/03/16 06:35:24;;;;;;;2.40;0.68;;;4.50;81.90;;;;;;5057446;28;20470;-61
2021/03/16 06:38:11;;;;;;;2.22;0.80;;;4.50;81.60;;;;;;5060203;28;20071;-60
2021/03/16 06:41:11;;;;;;;3.13;0.85;;;4.60;81.30;;;;;;5060985;28;20240;-61
2021/03/16 06:44:00;;;;;;;3.72;0.60;;;4.70;80.20;;;;;;5058867;28;20420;-60
2021/03/16 06:46:55;;;;;;;5.95;1.10;;;4.80;79.10;;;;;;5060468;28;20049;-60
2021/03/16 06:49:41;;;;;;;4.35;1.00;;;4.80;79.20;;;;;;5050990;28;20417;-60
2021/03/16 06:52:27;;;;;;;2.65;0.90;;;4.80;79.40;;;;;;5050337;28;21129;-60
2021/03/16 06:55:14;;;;;;;5.95;1.02;;;5.00;79.50;;;;;;5058183;28;20045;-60
2021/03/16 06:58:08;;;;;;;4.30;1.65;;;4.90;79.10;;;;;;5058429;28;20129;-60
2021/03/16 07:01:07;;;;;;;7.15;2.50;;;5.00;79.40;;;;;;5055019;28;20110;-60
2021/03/16 07:03:53;;;;;;;6.85;1.42;;;5.00;78.90;;;;;;5060077;28;20056;-60
2021/03/16 07:06:40;;;;;;;6.05;1.25;;;5.00;78.70;;;;;;5059409;28;20057;-60
2021/03/16 07:09:25;;;;;;;8.68;1.77;;;5.00;78.10;;;;;;5059398;28;20302;-60
2021/03/16 07:12:12;;;;;;;5.90;1.63;;;5.10;78.60;;;;;;5057333;28;20048;-60
2021/03/16 07:15:10;;;;;;;7.00;1.90;;;5.10;78.20;;;;;;5059996;28;20279;-61
2021/03/16 07:18:02;;;;;;;5.68;1.90;;;5.20;77.70;;;;;;5057201;28;20041;-60
2021/03/16 07:20:49;;;;;;;6.57;1.98;;;5.20;77.90;;;;;;5059226;28;20062;-60
2021/03/16 07:23:40;;;;;;;5.45;1.85;;;5.30;78.00;;;;;;5057567;28;20337;-60
2021/03/16 07:26:26;;;;;;;10.75;2.72;;;5.30;77.40;;;;;;5057714;28;20246;-59
2021/03/16 07:29:12;;;;;;;9.35;2.65;;;5.30;77.20;;;;;;5060782;28;20057;-60
2021/03/16 07:32:07;;;;;;;3.63;1.25;;;5.40;77.00;;;;;;5060820;28;20052;-60
2021/03/16 07:34:55;;;;;;;4.22;0.60;;;5.40;77.20;;;;;;5060801;28;20091;-60
2021/03/16 07:37:48;;;;;;;1.30;0.60;;;5.40;76.50;;;;;;5062124;28;20220;-60
2021/03/16 07:40:34;;;;;;;1.90;0.65;;;5.40;77.30;;;;;;5050351;28;20668;-60
2021/03/16 07:43:31;;;;;;;3.58;0.63;;;5.50;76.40;;;;;;5049170;28;20370;-60
2021/03/16 07:46:19;;;;;;;2.92;1.10;;;5.50;75.90;;;;;;5058162;28;20924;-60
2021/03/16 07:49:13;;;;;;;5.15;0.77;;;5.60;76.60;;;;;;5057792;28;20056;-60
2021/03/16 07:52:14;;;;;;;3.08;0.63;;;5.70;75.90;;;;;;5059176;28;20224;-60
2021/03/16 07:55:00;;;;;;;7.35;1.38;;;5.80;76.40;;;;;;5059477;28;20111;-59
2021/03/16 07:57:47;;;;;;;3.22;0.93;;;5.70;76.50;;;;;;5059309;28;20099;-61
2021/03/16 08:00:33;;;;;;;4.35;0.77;;;5.80;75.30;;;;;;5057893;28;20514;-59
2021/03/16 08:03:25;;;;;;;4.15;0.85;;;5.90;75.20;;;;;;5057541;28;20944;-61
2021/03/16 08:06:23;;;;;;;4.22;1.15;;;6.00;73.70;;;;;;5049533;28;20087;-60
2021/03/16 08:09:20;;;;;;;3.35;0.82;;;5.90;73.40;;;;;;5062252;28;20056;-60
2021/03/16 08:12:18;;;;;;;2.53;0.80;;;6.10;72.80;;;;;;5057312;28;20286;-60
2021/03/16 08:15:15;;;;;;;4.60;0.63;;;6.20;72.20;;;;;;5056800;28;20348;-60
2021/03/16 08:18:00;;;;;;;3.10;1.00;;;6.20;72.20;;;;;;5056530;28;20139;-61
2021/03/16 08:20:47;;;;;;;6.60;0.80;;;6.30;72.10;;;;;;5054564;28;20045;-60
2021/03/16 08:23:34;;;;;;;1.90;0.40;;;6.50;70.40;;;;;;5052372;28;20438;-59
2021/03/16 08:26:19;;;;;;;4.07;0.60;;;6.60;69.20;;;;;;5056967;28;20653;-60
2021/03/16 08:29:10;;;;;;;6.03;0.90;;;6.70;68.70;;;;;;5056996;28;20283;-59
2021/03/16 08:31:57;;;;;;;4.63;1.90;;;6.70;68.90;;;;;;5056699;28;20056;-60
2021/03/16 08:34:43;;;;;;;4.35;0.93;;;6.80;68.80;;;;;;5058056;28;20118;-59
2021/03/16 08:37:32;;;;;;;3.35;0.70;;;7.00;67.70;;;;;;5055255;28;20199;-59
2021/03/16 08:40:22;;;;;;;2.65;0.50;;;6.80;65.80;;;;;;5054251;28;20431;-60
2021/03/16 08:43:11;;;;;;;4.78;0.93;;;7.20;65.70;;;;;;5053246;28;20156;-60
2021/03/16 08:45:57;;;;;;;4.88;0.73;;;7.30;65.10;;;;;;5057610;28;20061;-60
2021/03/16 08:48:45;;;;;;;5.70;0.70;;;7.30;63.80;;;;;;5056106;28;20083;-60
2021/03/16 08:51:33;;;;;;;4.85;1.02;;;7.20;63.40;;;;;;5054458;28;20629;-60
2021/03/16 08:54:25;;;;;;;2.15;0.40;;;7.50;64.20;;;;;;5058741;28;20282;-60
2021/03/16 08:57:17;;;;;;;2.67;0.80;;;7.70;63.10;;;;;;5057653;28;20303;-60
2021/03/16 09:00:08;;;;;;;3.92;0.50;;;7.70;59.80;;;;;;5049633;28;20047;-59
2021/03/16 09:02:54;;;;;;;2.42;0.40;;;7.40;61.30;;;;;;5055614;28;20041;-60
2021/03/16 09:05:40;;;;;;;7.97;1.80;;;7.40;61.10;;;;;;5051303;28;20053;-60
2021/03/16 09:08:28;;;;;;;3.75;0.70;;;7.40;62.60;;;;;;5057404;28;20158;-60
2021/03/16 09:11:14;;;;;;;4.50;1.00;;;7.50;62.40;;;;;;5055017;28;20270;-59
2021/03/16 09:14:11;;;;;;;5.80;1.52;;;7.50;62.70;;;;;;5057137;28;20057;-59
2021/03/16 09:16:57;;;;;;;7.63;1.92;;;7.50;61.50;;;;;;5056346;28;20041;-60
2021/03/16 09:19:42;;;;;;;4.15;0.77;;;7.50;61.60;;;;;;5059936;28;20057;-60
2021/03/16 09:22:28;;;;;;;3.90;1.05;;;7.50;61.60;;;;;;5052639;28;21260;-60
2021/03/16 09:25:14;;;;;;;1.45;0.30;;;7.40;61.70;;;;;;5051367;28;20059;-60
2021/03/16 09:28:00;;;;;;;5.35;1.48;;;7.40;62.70;;;;;;5057186;28;20052;-60
2021/03/16 09:30:53;;;;;;;10.90;1.83;;;7.50;63.40;;;;;;5057028;28;20044;-60
2021/03/16 09:33:38;;;;;;;2.42;0.57;;;7.70;63.10;;;;;;5036342;28;21360;-60
2021/03/16 09:36:28;;;;;;;4.22;0.75;;;7.70;62.60;;;;;;5037442;28;20329;-60
2021/03/16 09:39:24;;;;;;;7.05;1.80;;;7.70;62.20;;;;;;5036805;28;20376;-60
2021/03/16 09:42:07;;;;;;;5.05;1.20;;;7.90;61.10;;;;;;5048470;28;20076;-60
2021/03/16 09:44:38;;;;;;;6.05;1.23;;;8.10;60.00;;;;;;5033757;28;20057;-60
2021/03/16 09:47:07;;;;;;;3.17;1.15;;;8.10;59.70;;;;;;5049484;28;20083;-59
2021/03/16 09:49:37;;;;;;;3.40;1.02;;;8.30;59.70;;;;;;5040568;28;20061;-60
2021/03/16 09:52:06;;;;;;;2.70;0.90;;;8.50;58.30;;;;;;5049132;28;20280;-60
2021/03/16 09:54:42;;;;;;;8.85;2.28;;;8.60;55.80;;;;;;5038825;28;20048;-60
2021/03/16 09:57:10;;;;;;;13.40;6.65;;;8.80;55.70;;;;;;5039933;28;20040;-60
2021/03/16 09:59:39;;;;;;;4.13;1.08;;;9.10;54.80;;;;;;5038937;28;20412;-60
2021/03/16 10:02:07;;;;;;;3.50;1.20;;;9.10;54.20;;;;;;5036235;28;20049;-60
2021/03/16 10:04:45;;;;;;;4.32;0.30;;;10.70;51.10;;;;;;5041367;28;20117;-60
2021/03/16 10:07:12;;;;;;;12.00;3.47;;;10.30;49.90;;;;;;5039734;28;20061;-60
2021/03/16 10:09:42;;;;;;;4.63;1.02;;;9.90;50.70;;;;;;5041280;28;20049;-60
2021/03/16 10:12:20;;;;;;;1.08;0.38;;;9.70;50.10;;;;;;5040372;28;20065;-60
2021/03/16 10:14:50;;;;;;;6.10;1.40;;;9.30;50.60;;;;;;5041453;28;20053;-60
2021/03/16 10:17:25;;;;;;;3.00;0.93;;;9.10;51.90;;;;;;5040702;28;20566;-60
2021/03/16 10:20:01;;;;;;;4.70;0.95;;;8.90;54.10;;;;;;5038212;28;20080;-61
2021/03/16 10:22:31;;;;;;;3.45;0.80;;;8.80;55.20;;;;;;5038110;28;20049;-61
2021/03/16 10:24:59;;;;;;;5.85;0.82;;;8.70;55.80;;;;;;5035676;28;20248;-60
2021/03/16 10:27:28;;;;;;;6.25;1.33;;;8.40;56.40;;;;;;5038510;28;20049;-60
2021/03/16 10:29:55;;;;;;;4.43;0.60;;;8.30;56.90;;;;;;5037845;28;20049;-60
2021/03/16 10:32:22;;;;;;;9.15;0.98;;;8.30;57.40;;;;;;5037884;28;20203;-60
2021/03/16 10:34:50;;;;;;;7.40;1.33;;;8.30;57.80;;;;;;5038040;28;20399;-60
2021/03/16 10:37:22;;;;;;;1.55;0.55;;;8.40;57.00;;;;;;5037611;28;20524;-61
2021/03/16 10:39:49;;;;;;;4.25;0.43;;;8.10;57.30;;;;;;5040705;28;20049;-60
2021/03/16 10:42:16;;;;;;;4.78;0.70;;;8.00;57.70;;;;;;5037902;28;20377;-61
2021/03/16 10:44:44;;;;;;;1.63;0.35;;;8.00;57.70;;;;;;5042930;28;20053;-60
2021/03/16 10:47:11;;;;;;;3.15;0.60;;;8.10;58.10;;;;;;5038703;28;20147;-60
2021/03/16 10:49:40;;;;;;;3.03;0.80;;;7.90;58.70;;;;;;5038402;28;20057;-59
2021/03/16 10:52:08;;;;;;;4.95;0.73;;;8.10;58.60;;;;;;5035498;28;20464;-60
2021/03/16 10:54:37;;;;;;;3.60;0.35;;;8.40;57.60;;;;;;5035142;28;20102;-61
2021/03/16 10:57:04;;;;;;;5.28;0.90;;;8.40;57.50;;;;;;5040087;28;20068;-60
2021/03/16 10:59:31;;;;;;;1.80;0.32;;;8.50;56.70;;;;;;5039802;28;20139;-59
2021/03/16 11:01:58;;;;;;;1.40;0.70;;;8.60;56.80;;;;;;5030042;28;20221;-59
2021/03/16 11:04:25;;;;;;;2.08;0.55;;;8.50;56.00;;;;;;5038722;28;20513;-60
2021/03/16 11:06:52;;;;;;;2.97;0.80;;;8.50;56.90;;;;;;5040746;28;20117;-60
2021/03/16 11:09:20;;;;;;;2.92;0.63;;;8.50;56.70;;;;;;5040245;28;20124;-60
2021/03/16 11:11:47;;;;;;;3.08;0.85;;;8.60;56.70;;;;;;5041294;28;20072;-59
2021/03/16 11:14:17;;;;;;;3.80;0.95;;;8.50;57.10;;;;;;5038993;28;20416;-60
2021/03/16 11:16:44;;;;;;;1.90;0.45;;;8.80;55.90;;;;;;5039916;28;20061;-60
2021/03/16 11:19:11;;;;;;;4.38;1.17;;;9.20;54.40;;;;;;5041668;28;20057;-60
2021/03/16 11:21:38;;;;;;;4.95;1.20;;;9.30;55.20;;;;;;5031010;28;20057;-60
2021/03/16 11:24:06;;;;;;;2.30;0.85;;;9.30;54.70;;;;;;5038782;28;20092;-60
2021/03/16 11:26:34;;;;;;;3.58;0.80;;;9.10;55.10;;;;;;5038146;28;20049;-60
2021/03/16 11:29:05;;;;;;;4.78;1.40;;;8.70;55.80;;;;;;5056083;28;20120;-60
2021/03/16 11:31:32;;;;;;;4.90;0.90;;;8.80;56.90;;;;;;5060264;28;20051;-60
2021/03/16 11:34:17;;;;;;;2.72;0.55;;;8.90;57.30;;;;;;5075810;28;20255;-60
2021/03/16 11:37:04;;;;;;;4.85;1.23;;;8.90;57.70;;;;;;5059735;28;20052;-60
2021/03/16 11:39:50;;;;;;;3.20;0.47;;;8.80;57.60;;;;;;5059072;28;20098;-60
2021/03/16 11:42:36;;;;;;;6.07;0.98;;;8.90;56.80;;;;;;5060674;28;20832;-60
2021/03/16 11:45:22;;;;;;;17.00;4.25;;;8.80;56.30;;;;;;5058897;28;20340;-60
2021/03/16 11:48:08;;;;;;;12.93;2.67;;;8.70;56.20;;;;;;5059179;28;20053;-60
2021/03/16 11:50:57;;;;;;;5.32;1.58;;;8.60;55.90;;;;;;5058991;28;20063;-60
2021/03/16 11:53:43;;;;;;;5.90;1.23;;;8.60;55.40;;;;;;5057196;28;20068;-59
2021/03/16 11:56:28;;;;;;;2.75;1.60;;;8.50;56.30;;;;;;5057395;28;21108;-60
2021/03/16 11:59:15;;;;;;;1.52;0.50;;;8.60;55.20;;;;;;5057094;28;20060;-59
2021/03/16 12:02:00;;;;;;;4.20;0.90;;;8.50;55.10;;;;;;5051516;28;20052;-60
2021/03/16 12:04:47;;;;;;;2.83;0.70;;;8.70;55.60;;;;;;5060579;28;20048;-60
2021/03/16 12:07:33;;;;;;;2.35;0.85;;;9.10;53.70;;;;;;5059375;28;20124;-60
2021/03/16 12:10:18;;;;;;;1.55;0.43;;;9.40;52.20;;;;;;5047182;28;20603;-59
2021/03/16 12:13:03;;;;;;;6.40;1.17;;;9.70;51.30;;;;;;5054858;28;20360;-60
2021/03/16 12:15:49;;;;;;;3.70;0.70;;;10.00;50.50;;;;;;5054495;28;20057;-60
2021/03/16 12:18:35;;;;;;;1.83;0.28;;;10.40;49.90;;;;;;5055664;28;21132;-60
2021/03/16 12:21:20;;;;;;;2.70;0.95;;;10.60;49.30;;;;;;5054856;28;20036;-60
2021/03/16 12:24:06;;;;;;;4.95;0.95;;;11.70;45.70;;;;;;5055008;28;20112;-60
2021/03/16 12:26:54;;;;;;;2.42;0.70;;;12.70;45.50;;;;;;5056326;28;20337;-60
2021/03/16 12:29:39;;;;;;;4.13;0.75;;;12.70;40.60;;;;;;5059871;28;20055;-60
2021/03/16 12:32:26;;;;;;;3.95;0.88;;;12.50;40.90;;;;;;5056200;28;20272;-60
2021/03/16 12:35:14;;;;;;;1.00;0.32;;;12.20;42.30;;;;;;5060030;28;20072;-61
2021/03/16 12:38:03;;;;;;;1.88;0.40;;;13.00;40.50;;;;;;5061953;28;20120;-61
2021/03/16 12:40:52;;;;;;;3.72;0.55;;;16.80;32.00;;;;;;5059891;28;20340;-61
2021/03/16 12:43:45;;;;;;;2.55;0.75;;;18.40;30.50;;;;;;5061075;28;20048;-60
2021/03/16 12:46:31;;;;;;;3.20;0.60;;;17.10;31.00;;;;;;5047521;28;20049;-59
2021/03/16 12:49:17;;;;;;;6.20;1.15;;;16.60;31.50;;;;;;5038390;28;20938;-60
2021/03/16 12:52:03;;;;;;;1.42;0.70;;;15.30;34.50;;;;;;5038661;28;20156;-59
2021/03/16 12:54:49;;;;;;;4.32;1.05;;;14.20;36.10;;;;;;5040718;28;20085;-60
2021/03/16 12:57:35;;;;;;;2.92;0.88;;;13.50;37.60;;;;;;5040250;28;21019;-60
2021/03/16 13:00:22;;;;;;;1.95;0.60;;;12.40;39.40;;;;;;5034954;28;20225;-60
2021/03/16 13:03:07;;;;;;;2.35;0.70;;;12.40;40.40;;;;;;5035610;28;20049;-60
2021/03/16 13:05:53;;;;;;;3.33;0.90;;;12.30;39.70;;;;;;5039660;28;20045;-60
2021/03/16 13:08:39;;;;;;;4.68;0.85;;;11.70;40.90;;;;;;5040319;28;20049;-60
2021/03/16 13:11:24;;;;;;;3.05;0.70;;;11.00;42.00;;;;;;5040594;28;20456;-60
2021/03/16 13:14:11;;;;;;;4.65;1.35;;;10.50;43.00;;;;;;5041460;28;20053;-61
2021/03/16 13:16:57;;;;;;;2.90;0.73;;;12.70;41.10;;;;;;5041855;28;20120;-59
2021/03/16 13:19:42;;;;;;;1.02;0.40;;;16.00;33.60;;;;;;5041888;28;20049;-59
2021/03/16 13:22:29;;;;;;;4.03;0.85;;;17.80;29.60;;;;;;5039850;28;20413;-60
2021/03/16 13:25:16;;;;;;;1.65;0.57;;;20.30;28.20;;;;;;5051912;23;20029;-59
2021/03/16 13:28:02;;;;;;;2.75;0.52;;;19.80;25.30;;;;;;5056644;28;20092;-60
2021/03/16 13:30:47;;;;;;;1.92;0.63;;;19.10;27.50;;;;;;5050685;28;20087;-59
2021/03/16 13:33:33;;;;;;;3.17;0.80;;;16.90;27.80;;;;;;5039391;28;20500;-60
2021/03/16 13:36:18;;;;;;;2.95;0.70;;;16.50;29.60;;;;;;5040933;28;20415;-60
2021/03/16 13:39:05;;;;;;;1.95;0.63;;;18.30;26.90;;;;;;5049727;28;20356;-60
2021/03/16 13:41:51;;;;;;;2.47;0.47;;;19.40;25.70;;;;;;5045630;28;20052;-61
2021/03/16 13:44:36;;;;;;;1.48;0.43;;;20.10;24.20;;;;;;5061415;28;20426;-60
2021/03/16 13:47:22;;;;;;;4.45;0.93;;;19.30;26.00;;;;;;5051364;28;21117;-60
2021/03/16 13:50:09;;;;;;;1.52;0.40;;;16.80;28.40;;;;;;5048792;28;20053;-60
2021/03/16 13:52:54;;;;;;;3.10;0.45;;;14.90;31.40;;;;;;5043304;28;20045;-60
2021/03/16 13:55:40;;;;;;;1.65;0.30;;;14.20;33.30;;;;;;5048468;28;20045;-60
2021/03/16 13:58:26;;;;;;;3.33;0.95;;;13.80;34.30;;;;;;5040835;28;20281;-60
2021/03/16 14:01:11;;;;;;;1.08;0.28;;;13.80;34.30;;;;;;5037769;28;20047;-61
2021/03/16 14:03:57;;;;;;;1.00;0.38;;;15.50;32.00;;;;;;5045284;28;20046;-60
2021/03/16 14:06:43;;;;;;;1.70;0.40;;;14.30;31.90;;;;;;5046494;28;20044;-60
2021/03/16 14:09:29;;;;;;;3.05;0.40;;;13.50;32.60;;;;;;5054984;28;20296;-63
2021/03/16 14:12:15;;;;;;;1.33;0.30;;;12.80;34.70;;;;;;5051748;28;20083;-60
2021/03/16 14:15:01;;;;;;;1.00;0.40;;;13.00;35.50;;;;;;5043663;28;20041;-60